createdAt,value
2018-12-10T00:02:18.680Z,16.20
2018-12-10T00:04:46.819Z,8.87
2018-12-10T00:07:14.939Z,10.07
2018-12-10T00:09:43.084Z,13.90
2018-12-10T00:12:11.163Z,9.57
2018-12-10T00:14:39.297Z,12.70
2018-12-10T00:17:07.394Z,7.10
2018-12-10T00:19:35.515Z,15.37
2018-12-10T00:22:04.066Z,15.47
2018-12-10T00:24:32.172Z,13.10
2018-12-10T00:27:00.267Z,7.63
2018-12-10T00:29:28.396Z,12.07
2018-12-10T00:31:56.493Z,13.67
2018-12-10T00:34:24.813Z,11.77
2018-12-10T00:36:54.861Z,9.50
2018-12-10T00:39:22.949Z,12.00
2018-12-10T00:41:51.078Z,17.53
2018-12-10T00:44:19.248Z,15.07
2018-12-10T00:46:47.417Z,6.37
2018-12-10T00:49:15.516Z,9.60
2018-12-10T00:51:43.662Z,7.27
2018-12-10T00:54:11.816Z,11.43
2018-12-10T00:56:39.953Z,7.97
2018-12-10T00:59:08.087Z,14.47
2018-12-10T01:01:36.225Z,12.77
2018-12-10T01:04:04.412Z,8.53
2018-12-10T01:06:32.577Z,12.67
2018-12-10T01:09:00.677Z,12.40
2018-12-10T01:11:28.821Z,16.13
2018-12-10T01:13:56.932Z,16.10
2018-12-10T01:16:25.730Z,14.03
2018-12-10T01:18:53.832Z,17.80
2018-12-10T01:21:21.962Z,13.93
2018-12-10T01:23:50.196Z,13.40
2018-12-10T01:26:18.303Z,12.07
2018-12-10T01:28:46.432Z,17.13
2018-12-10T01:31:14.585Z,21.97
2018-12-10T01:33:42.732Z,15.13
2018-12-10T01:36:10.851Z,19.47
2018-12-10T01:38:39.015Z,21.90
2018-12-10T01:41:07.132Z,14.17
2018-12-10T01:43:35.274Z,10.10
2018-12-10T01:46:03.452Z,12.00
2018-12-10T01:48:31.612Z,10.03
2018-12-10T01:50:59.726Z,12.67
2018-12-10T01:53:27.864Z,12.47
2018-12-10T01:55:56.075Z,9.50
2018-12-10T02:01:21.382Z,7.13
2018-12-10T02:03:49.535Z,16.47
2018-12-10T02:06:17.703Z,10.43
2018-12-10T02:08:45.809Z,7.63
2018-12-10T02:11:13.897Z,10.80
2018-12-10T02:13:42.067Z,10.10
2018-12-10T02:16:10.198Z,8.67
2018-12-10T02:18:38.329Z,9.07
2018-12-10T02:21:06.431Z,5.47
2018-12-10T02:23:34.533Z,9.23
2018-12-10T02:26:02.740Z,9.37
2018-12-10T02:28:36.754Z,9.67
2018-12-10T02:31:04.866Z,9.63
2018-12-10T02:33:33.082Z,13.57
2018-12-10T02:36:01.248Z,14.43
2018-12-10T02:38:29.456Z,11.33
2018-12-10T02:40:57.761Z,19.63
2018-12-10T02:43:26.563Z,18.00
2018-12-10T02:45:54.711Z,16.83
2018-12-10T02:48:22.882Z,14.20
2018-12-10T02:50:50.958Z,18.53
2018-12-10T02:53:19.141Z,15.93
2018-12-10T02:55:47.237Z,16.27
2018-12-10T02:58:15.393Z,16.07
2018-12-10T03:00:43.605Z,13.43
2018-12-10T03:03:11.776Z,13.00
2018-12-10T03:05:39.922Z,14.60
2018-12-10T03:08:08.075Z,16.40
2018-12-10T03:10:36.257Z,20.63
2018-12-10T03:13:04.454Z,17.50
2018-12-10T03:15:32.553Z,15.63
2018-12-10T03:18:00.686Z,17.87
2018-12-10T03:20:28.821Z,36.83
2018-12-10T03:22:56.982Z,12.17
2018-12-10T03:25:25.140Z,18.20
2018-12-10T03:27:53.260Z,15.37
2018-12-10T03:30:21.369Z,14.77
2018-12-10T03:32:49.579Z,19.67
2018-12-10T03:35:17.705Z,16.60
2018-12-10T03:37:45.940Z,8.80
2018-12-10T03:40:14.072Z,22.93
2018-12-10T03:42:42.228Z,14.27
2018-12-10T03:45:10.368Z,16.73
2018-12-10T03:47:39.956Z,19.53
2018-12-10T03:50:08.262Z,14.20
2018-12-10T03:52:36.356Z,11.90
2018-12-10T03:55:05.439Z,14.10
2018-12-10T03:57:33.537Z,13.30
2018-12-10T04:00:01.788Z,14.40
2018-12-10T04:02:29.882Z,19.30
2018-12-10T04:04:57.996Z,12.63
2018-12-10T04:07:26.195Z,11.60
2018-12-10T04:09:54.363Z,15.77
2018-12-10T04:12:22.635Z,20.33
2018-12-10T04:14:50.783Z,17.87
2018-12-10T04:17:18.944Z,21.70
2018-12-10T04:19:47.059Z,18.50
2018-12-10T04:22:15.412Z,14.60
2018-12-10T04:24:45.612Z,16.83
2018-12-10T04:27:13.631Z,23.87
2018-12-10T04:29:42.598Z,13.10
2018-12-10T04:32:10.695Z,14.57
2018-12-10T04:34:38.801Z,14.83
2018-12-10T04:37:06.952Z,18.00
2018-12-10T04:39:35.061Z,15.97
2018-12-10T04:42:03.223Z,16.57
2018-12-10T04:44:31.396Z,15.83
2018-12-10T04:47:02.423Z,15.60
2018-12-10T04:49:30.538Z,18.57
2018-12-10T04:51:58.675Z,9.90
2018-12-10T04:54:26.816Z,11.27
2018-12-10T04:56:55.045Z,16.80
2018-12-10T04:59:23.183Z,20.13
2018-12-10T05:01:51.277Z,16.63
2018-12-10T05:04:19.473Z,12.40
2018-12-10T05:06:47.563Z,16.07
2018-12-10T05:09:16.048Z,13.10
2018-12-10T05:11:44.202Z,12.00
2018-12-10T05:14:12.396Z,12.93
2018-12-10T05:16:40.515Z,17.53
2018-12-10T05:19:08.696Z,10.00
2018-12-10T05:21:36.922Z,12.97
2018-12-10T05:24:05.019Z,19.37
2018-12-10T05:26:33.123Z,11.37
2018-12-10T05:29:01.228Z,11.90
2018-12-10T05:31:29.331Z,9.83
2018-12-10T05:33:57.435Z,12.37
2018-12-10T05:36:25.548Z,15.40
2018-12-10T05:38:53.660Z,15.50
2018-12-10T05:41:21.876Z,12.90
2018-12-10T05:43:49.989Z,16.90
2018-12-10T05:46:18.092Z,11.70
2018-12-10T05:48:46.195Z,16.80
2018-12-10T05:51:14.307Z,11.90
2018-12-10T05:53:42.404Z,15.87
2018-12-10T05:56:10.506Z,11.57
2018-12-10T05:58:38.767Z,15.27
2018-12-10T06:01:06.999Z,14.13
2018-12-10T06:03:35.101Z,11.87
2018-12-10T06:06:03.287Z,12.53
2018-12-10T06:08:31.402Z,19.47
2018-12-10T06:10:59.500Z,16.03
2018-12-10T06:13:27.603Z,13.67
2018-12-10T06:15:55.724Z,10.97
2018-12-10T06:18:23.861Z,10.27
2018-12-10T06:20:52.023Z,14.13
2018-12-10T06:23:20.116Z,12.70
2018-12-10T06:25:48.290Z,9.50
2018-12-10T06:28:16.411Z,13.93
2018-12-10T06:30:44.543Z,10.73
2018-12-10T06:33:12.737Z,14.83
2018-12-10T06:35:40.820Z,13.13
2018-12-10T06:38:08.932Z,15.17
2018-12-10T06:40:38.361Z,15.67
2018-12-10T06:43:06.607Z,17.70
2018-12-10T06:45:34.695Z,18.00
2018-12-10T06:48:02.835Z,13.90
2018-12-10T06:50:30.964Z,13.13
2018-12-10T06:52:59.078Z,11.47
2018-12-10T06:55:27.172Z,13.97
2018-12-10T06:57:55.310Z,8.27
2018-12-10T07:00:23.431Z,7.80
2018-12-10T07:02:51.560Z,11.40
2018-12-10T07:05:19.721Z,13.13
2018-12-10T07:07:47.840Z,16.13
2018-12-10T07:10:15.972Z,17.00
2018-12-10T07:12:44.084Z,13.90
2018-12-10T07:15:12.255Z,10.63
2018-12-10T07:17:40.369Z,12.50
2018-12-10T07:20:08.559Z,9.03
2018-12-10T07:22:36.748Z,10.87
2018-12-10T07:25:05.717Z,22.02
2018-12-10T07:27:33.993Z,11.87
2018-12-10T07:30:02.107Z,12.00
2018-12-10T07:32:30.299Z,17.13
2018-12-10T07:34:58.376Z,15.50
2018-12-10T07:37:26.487Z,11.20
2018-12-10T07:39:54.592Z,18.97
2018-12-10T07:42:22.704Z,19.13
2018-12-10T07:44:50.831Z,15.77
2018-12-10T07:47:18.921Z,21.23
2018-12-10T07:49:47.026Z,18.17
2018-12-10T07:52:15.267Z,19.90
2018-12-10T07:54:43.379Z,15.47
2018-12-10T07:57:11.608Z,27.33
2018-12-10T07:59:39.727Z,17.20
2018-12-10T08:02:07.868Z,14.43
2018-12-10T08:04:35.963Z,15.37
2018-12-10T08:07:04.043Z,8.73
2018-12-10T08:09:32.180Z,14.83
2018-12-10T08:12:00.315Z,14.53
2018-12-10T08:14:28.415Z,16.43
2018-12-10T08:16:56.544Z,17.17
2018-12-10T08:19:24.663Z,12.97
2018-12-10T08:21:52.749Z,7.50
2018-12-10T08:24:20.844Z,9.70
2018-12-10T08:26:48.957Z,9.67
2018-12-10T08:29:17.163Z,6.30
2018-12-10T08:31:45.336Z,15.23
2018-12-10T08:34:13.423Z,9.63
2018-12-10T08:36:41.625Z,12.43
2018-12-10T08:39:09.756Z,11.90
2018-12-10T08:41:37.867Z,9.27
2018-12-10T08:44:05.997Z,10.73
2018-12-10T08:46:34.165Z,8.07
2018-12-10T08:49:02.296Z,6.60
2018-12-10T08:51:30.417Z,8.30
2018-12-10T08:53:58.544Z,13.93
2018-12-10T08:56:26.949Z,10.63
2018-12-10T08:58:55.047Z,10.83
2018-12-10T09:01:23.184Z,13.70
2018-12-10T09:03:51.293Z,16.00
2018-12-10T09:06:19.403Z,17.00
2018-12-10T09:08:47.524Z,15.97
2018-12-10T09:11:15.704Z,9.87
2018-12-10T09:13:43.859Z,10.97
2018-12-10T09:16:12.096Z,12.07
2018-12-10T09:18:40.211Z,7.80
2018-12-10T09:21:08.324Z,8.03
2018-12-10T09:23:36.484Z,8.23
2018-12-10T09:26:04.652Z,13.40
2018-12-10T09:28:32.850Z,9.97
2018-12-10T09:31:00.990Z,11.17
2018-12-10T09:33:29.152Z,11.90
2018-12-10T09:35:57.243Z,9.23
2018-12-10T09:38:26.695Z,8.50
2018-12-10T09:40:54.952Z,12.23
2018-12-10T09:43:23.068Z,15.43
2018-12-10T09:45:51.189Z,8.10
2018-12-10T09:48:19.292Z,8.67
2018-12-10T09:50:47.461Z,15.93
2018-12-10T09:53:15.576Z,11.53
2018-12-10T09:55:43.671Z,11.27
2018-12-10T09:58:11.827Z,14.27
2018-12-10T10:00:40.005Z,14.47
2018-12-10T10:03:08.144Z,17.67
2018-12-10T10:05:36.403Z,11.70
2018-12-10T10:08:04.592Z,8.13
2018-12-10T10:10:32.816Z,12.90
2018-12-10T10:13:00.930Z,7.60
2018-12-10T10:15:29.077Z,3.30
2018-12-10T10:17:58.920Z,4.63
2018-12-10T10:20:27.403Z,10.43
2018-12-10T10:22:55.656Z,9.33
2018-12-10T10:25:23.780Z,5.00
2018-12-10T10:27:51.958Z,5.87
2018-12-10T10:30:20.107Z,4.60
2018-12-10T10:32:48.221Z,5.07
2018-12-10T10:35:16.417Z,6.53
2018-12-10T10:37:44.534Z,8.13
2018-12-10T10:40:12.727Z,4.37
2018-12-10T10:42:40.913Z,7.23
2018-12-10T10:45:09.125Z,7.80
2018-12-10T10:47:37.241Z,9.90
2018-12-10T10:50:06.107Z,13.10
2018-12-10T10:52:34.304Z,10.87
2018-12-10T10:55:02.520Z,7.20
2018-12-10T10:57:31.554Z,12.47
2018-12-10T11:00:00.003Z,7.83
2018-12-10T11:02:46.417Z,8.80
2018-12-10T11:05:14.753Z,11.23
2018-12-10T11:07:43.203Z,7.00
2018-12-10T11:10:11.404Z,12.70
2018-12-10T11:12:39.514Z,11.17
2018-12-10T11:15:07.659Z,11.70
2018-12-10T11:17:35.799Z,8.73
2018-12-10T11:20:05.671Z,12.90
2018-12-10T11:22:33.822Z,8.30
2018-12-10T11:25:01.927Z,6.83
2018-12-10T11:27:30.132Z,9.83
2018-12-10T11:29:58.316Z,13.13
2018-12-10T11:32:26.407Z,11.20
2018-12-10T11:34:54.548Z,10.40
2018-12-10T11:37:22.644Z,7.97
2018-12-10T11:39:50.801Z,6.33
2018-12-10T11:42:18.905Z,9.90
2018-12-10T11:44:48.602Z,5.70
2018-12-10T11:47:16.880Z,8.47
2018-12-10T11:49:44.984Z,12.53
2018-12-10T11:52:13.164Z,10.47
2018-12-10T11:54:41.368Z,7.67
2018-12-10T11:57:09.475Z,8.60
2018-12-10T11:59:37.592Z,5.83
2018-12-10T12:02:05.883Z,9.27
2018-12-10T12:04:34.030Z,8.77
2018-12-10T12:07:02.107Z,6.57
2018-12-10T12:09:30.333Z,7.00
2018-12-10T12:11:58.464Z,7.03
2018-12-10T12:14:26.617Z,3.90
2018-12-10T12:16:54.746Z,6.70
2018-12-10T12:19:22.896Z,7.57
2018-12-10T12:21:50.996Z,2.03
2018-12-10T12:24:19.366Z,2.97
2018-12-10T12:26:48.256Z,4.40
2018-12-10T12:29:16.370Z,4.20
2018-12-10T12:31:44.583Z,9.60
2018-12-10T12:34:12.676Z,4.67
2018-12-10T12:36:40.835Z,3.20
2018-12-10T12:39:08.923Z,4.07
2018-12-10T12:41:37.088Z,2.33
2018-12-10T12:44:05.232Z,5.73
2018-12-10T12:46:33.448Z,4.63
2018-12-10T12:49:01.596Z,3.13
2018-12-10T12:51:29.915Z,4.53
2018-12-10T12:53:58.024Z,3.63
2018-12-10T12:56:26.204Z,5.67
2018-12-10T12:58:54.316Z,6.27
2018-12-10T13:01:22.574Z,4.47
2018-12-10T13:03:50.659Z,7.33
2018-12-10T13:06:18.846Z,10.47
2018-12-10T13:08:47.989Z,8.13
2018-12-10T13:11:16.196Z,8.60
2018-12-10T13:13:44.288Z,4.73
2018-12-10T13:16:12.395Z,8.40
2018-12-10T13:18:40.507Z,6.30
2018-12-10T13:21:08.632Z,7.87
2018-12-10T13:23:36.749Z,6.50
2018-12-10T13:26:04.891Z,3.20
2018-12-10T13:28:33.016Z,9.43
2018-12-10T13:31:01.133Z,8.13
2018-12-10T13:33:29.223Z,9.37
2018-12-10T13:35:57.411Z,10.70
2018-12-10T13:38:25.500Z,11.50
2018-12-10T13:40:53.608Z,9.00
2018-12-10T13:43:21.785Z,13.30
2018-12-10T13:45:50.004Z,11.40
2018-12-10T13:48:18.228Z,10.27
2018-12-10T13:50:46.342Z,14.53
2018-12-10T13:53:14.447Z,10.63
2018-12-10T13:55:42.563Z,10.90
2018-12-10T13:58:10.728Z,13.10
2018-12-10T14:00:38.908Z,8.77
2018-12-10T14:03:07.237Z,16.07
2018-12-10T14:05:35.384Z,8.73
2018-12-10T14:08:03.543Z,16.13
2018-12-10T14:10:31.735Z,13.03
2018-12-10T14:12:59.858Z,18.23
2018-12-10T14:15:28.129Z,24.03
2018-12-10T14:17:56.252Z,18.97
2018-12-10T14:20:24.403Z,15.27
2018-12-10T14:22:52.531Z,10.53
2018-12-10T14:25:23.859Z,12.07
2018-12-10T14:27:52.198Z,12.57
2018-12-10T14:30:20.335Z,16.80
2018-12-10T14:32:48.713Z,14.50
2018-12-10T14:35:16.875Z,22.63
2018-12-10T14:37:45.118Z,22.90
2018-12-10T14:40:13.340Z,12.60
2018-12-10T14:42:49.210Z,20.20
2018-12-10T14:45:17.983Z,14.23
2018-12-10T14:47:49.500Z,12.97
2018-12-10T14:50:17.756Z,16.50
2018-12-10T14:52:45.928Z,16.83
2018-12-10T14:55:14.000Z,11.13
2018-12-10T14:57:42.101Z,14.40
2018-12-10T15:00:10.623Z,18.43
2018-12-10T15:02:38.809Z,17.93
2018-12-10T15:05:07.375Z,14.70
2018-12-10T15:07:35.533Z,18.67
2018-12-10T15:10:04.901Z,15.10
2018-12-10T15:12:33.016Z,14.13
2018-12-10T15:15:02.468Z,17.83
2018-12-10T15:17:30.727Z,18.73
2018-12-10T15:19:58.832Z,14.57
2018-12-10T15:22:26.943Z,13.43
2018-12-10T15:24:55.068Z,12.90
2018-12-10T15:27:23.172Z,15.20
2018-12-10T15:29:51.275Z,15.23
2018-12-10T15:32:19.444Z,11.60
2018-12-10T15:34:47.569Z,14.03
2018-12-10T15:37:15.662Z,11.73
2018-12-10T15:39:43.768Z,25.10
2018-12-10T15:42:11.919Z,13.57
2018-12-10T15:44:40.114Z,16.90
2018-12-10T15:47:08.230Z,21.77
2018-12-10T15:49:36.401Z,18.07
2018-12-10T15:52:04.498Z,21.00
2018-12-10T15:54:32.587Z,17.53
2018-12-10T15:57:00.855Z,20.90
2018-12-10T15:59:28.972Z,15.53
2018-12-10T16:01:57.067Z,17.77
2018-12-10T16:04:25.213Z,16.30
2018-12-10T16:06:53.300Z,13.33
2018-12-10T16:09:21.417Z,22.93
2018-12-10T16:11:49.528Z,19.80
2018-12-10T16:14:17.628Z,22.47
2018-12-10T16:16:45.724Z,19.30
2018-12-10T16:19:13.860Z,16.03
2018-12-10T16:21:42.019Z,16.20
2018-12-10T16:24:10.203Z,17.93
2018-12-10T16:26:38.283Z,15.13
2018-12-10T16:29:06.571Z,20.83
2018-12-10T16:31:34.669Z,19.83
2018-12-10T16:34:02.793Z,20.80
2018-12-10T16:36:30.984Z,17.53
2018-12-10T16:38:59.381Z,15.40
2018-12-10T16:41:27.591Z,14.10
2018-12-10T16:43:55.700Z,18.60
2018-12-10T16:46:23.895Z,13.83
2018-12-10T16:48:52.053Z,18.37
2018-12-10T16:51:20.172Z,24.90
2018-12-10T16:53:48.393Z,14.93
2018-12-10T16:56:16.527Z,17.73
2018-12-10T16:58:44.696Z,15.73
2018-12-10T17:01:12.844Z,16.37
2018-12-10T17:03:41.046Z,19.60
2018-12-10T17:06:09.199Z,15.97
2018-12-10T17:08:37.372Z,15.73
2018-12-10T17:11:05.539Z,22.17
2018-12-10T17:13:33.671Z,16.10
2018-12-10T17:16:01.876Z,17.30
2018-12-10T17:18:29.951Z,15.43
2018-12-10T17:20:58.112Z,16.43
2018-12-10T17:23:26.749Z,17.97
2018-12-10T17:25:54.880Z,13.13
2018-12-10T17:28:23.008Z,15.00
2018-12-10T17:30:51.142Z,14.03
2018-12-10T17:33:19.237Z,9.47
2018-12-10T17:35:47.371Z,15.47
2018-12-10T17:38:15.479Z,16.97
2018-12-10T17:40:43.789Z,12.97
2018-12-10T17:43:11.884Z,20.20
2018-12-10T17:45:39.998Z,13.10
2018-12-10T17:48:08.144Z,14.00
2018-12-10T17:50:36.311Z,17.17
2018-12-10T17:53:04.495Z,19.77
2018-12-10T17:55:32.607Z,10.00
2018-12-10T17:58:00.802Z,24.70
2018-12-10T18:00:28.945Z,14.10
2018-12-10T18:02:57.051Z,21.57
2018-12-10T18:05:26.680Z,19.63
2018-12-10T18:07:55.063Z,17.00
2018-12-10T18:10:23.247Z,26.40
2018-12-10T18:12:51.368Z,22.43
2018-12-10T18:15:19.517Z,24.03
2018-12-10T18:17:47.637Z,24.80
2018-12-10T18:20:15.830Z,19.80
2018-12-10T18:22:44.020Z,25.07
2018-12-10T18:25:12.197Z,12.40
2018-12-10T18:27:40.337Z,18.03
2018-12-10T18:30:09.452Z,19.70
2018-12-10T18:32:37.612Z,15.87
2018-12-10T18:35:06.723Z,23.07
2018-12-10T18:37:34.911Z,20.40
2018-12-10T18:40:05.419Z,32.07
2018-12-10T18:42:33.608Z,20.63
2018-12-10T18:45:01.784Z,19.50
2018-12-10T18:47:29.990Z,18.60
2018-12-10T18:49:58.087Z,28.00
2018-12-10T18:52:26.204Z,18.70
2018-12-10T18:54:54.288Z,22.70
2018-12-10T18:57:22.400Z,18.77
2018-12-10T18:59:50.497Z,16.47
2018-12-10T19:02:18.712Z,17.77
2018-12-10T19:04:46.812Z,20.43
2018-12-10T19:07:14.946Z,27.93
2018-12-10T19:09:43.075Z,19.63
2018-12-10T19:12:11.186Z,20.97
2018-12-10T19:14:39.415Z,19.00
2018-12-10T19:17:07.566Z,21.00
2018-12-10T19:19:35.776Z,17.63
2018-12-10T19:22:03.935Z,15.60
2018-12-10T19:24:32.175Z,16.23
2018-12-10T19:27:00.294Z,18.90
2018-12-10T19:29:28.413Z,17.33
2018-12-10T19:31:56.512Z,24.17
2018-12-10T19:34:24.669Z,19.13
2018-12-10T19:36:52.803Z,13.70
2018-12-10T19:39:21.029Z,17.43
2018-12-10T19:41:49.187Z,10.47
2018-12-10T19:44:17.306Z,15.83
2018-12-10T19:46:45.437Z,18.53
2018-12-10T19:49:13.694Z,15.47
2018-12-10T19:51:42.271Z,20.50
2018-12-10T19:54:10.480Z,18.53
2018-12-10T19:56:38.631Z,16.30
2018-12-10T19:59:06.779Z,18.60
2018-12-10T20:01:34.948Z,23.33
2018-12-10T20:04:03.189Z,21.77
2018-12-10T20:06:32.124Z,20.43
2018-12-10T20:09:00.238Z,19.00
2018-12-10T20:11:28.351Z,22.33
2018-12-10T20:13:57.749Z,19.37
2018-12-10T20:16:25.871Z,18.93
2018-12-10T20:18:54.024Z,29.40
2018-12-10T20:21:22.113Z,16.67
2018-12-10T20:23:50.216Z,18.23
2018-12-10T20:26:18.410Z,19.03
2018-12-10T20:28:46.583Z,17.03
2018-12-10T20:31:14.822Z,24.87
2018-12-10T20:33:43.101Z,17.03
2018-12-10T20:36:11.351Z,12.03
2018-12-10T20:38:39.681Z,17.00
2018-12-10T20:41:07.823Z,20.80
2018-12-10T20:43:35.938Z,15.67
2018-12-10T20:46:04.118Z,22.83
2018-12-10T20:48:32.252Z,16.00
2018-12-10T20:51:00.452Z,18.90
2018-12-10T20:53:28.561Z,26.43
2018-12-10T20:55:56.661Z,19.60
2018-12-10T20:58:24.812Z,24.30
2018-12-10T21:00:52.911Z,20.17
2018-12-10T21:03:21.164Z,21.60
2018-12-10T21:05:55.079Z,22.83
2018-12-10T21:08:23.252Z,15.43
2018-12-10T21:10:51.372Z,15.93
2018-12-10T21:13:19.468Z,20.77
2018-12-10T21:15:47.603Z,25.57
2018-12-10T21:18:15.716Z,25.03
2018-12-10T21:20:43.854Z,20.07
2018-12-10T21:23:12.023Z,19.70
2018-12-10T21:25:40.168Z,26.97
2018-12-10T21:28:08.310Z,18.80
2018-12-10T21:30:36.425Z,18.93
2018-12-10T21:33:04.635Z,21.10
2018-12-10T21:35:32.760Z,21.87
2018-12-10T21:38:01.091Z,24.30
2018-12-10T21:40:29.245Z,20.37
2018-12-10T21:42:57.383Z,22.73
2018-12-10T21:45:25.528Z,20.63
2018-12-10T21:47:53.634Z,19.80
2018-12-10T21:50:21.779Z,20.97
2018-12-10T21:52:49.897Z,18.17
2018-12-10T21:55:18.036Z,25.80
2018-12-10T21:57:46.143Z,23.70
2018-12-10T22:00:14.328Z,21.07
2018-12-10T22:02:42.485Z,26.97
2018-12-10T22:05:10.645Z,22.70
2018-12-10T22:07:38.825Z,19.20
2018-12-10T22:10:07.013Z,17.57
2018-12-10T22:12:35.175Z,21.30
2018-12-10T22:15:04.064Z,19.10
2018-12-10T22:17:32.298Z,23.00
2018-12-10T22:20:00.473Z,29.13
2018-12-10T22:22:28.596Z,19.13
2018-12-10T22:24:56.708Z,22.23
2018-12-10T22:27:24.804Z,22.77
2018-12-10T22:29:52.942Z,32.83
2018-12-10T22:32:21.044Z,21.90
2018-12-10T22:34:49.199Z,20.70
2018-12-10T22:37:17.375Z,24.43
2018-12-10T22:39:45.467Z,24.87
2018-12-10T22:42:13.682Z,20.73
2018-12-10T22:44:43.253Z,22.27
2018-12-10T22:47:11.538Z,20.57
2018-12-10T22:49:39.779Z,27.83
2018-12-10T22:52:07.911Z,21.47
2018-12-10T22:54:36.015Z,23.97
2018-12-10T22:57:04.216Z,23.17
2018-12-10T22:59:32.330Z,21.03
2018-12-10T23:02:00.600Z,29.70
2018-12-10T23:04:28.709Z,27.60
2018-12-10T23:06:56.812Z,27.27
2018-12-10T23:09:24.920Z,21.07
2018-12-10T23:11:53.145Z,20.83
2018-12-10T23:14:21.247Z,21.83
2018-12-10T23:16:49.364Z,18.37
2018-12-10T23:19:17.473Z,22.53
2018-12-10T23:21:45.571Z,27.90
2018-12-10T23:24:13.671Z,19.10
2018-12-10T23:26:41.794Z,19.17
2018-12-10T23:29:09.948Z,15.40
2018-12-10T23:31:38.101Z,22.23
2018-12-10T23:34:06.199Z,18.83
2018-12-10T23:36:34.319Z,18.60
2018-12-10T23:39:02.453Z,18.97
2018-12-10T23:41:30.551Z,17.30
2018-12-10T23:43:58.672Z,19.20
2018-12-10T23:46:26.820Z,21.63
2018-12-10T23:48:54.907Z,19.10
2018-12-10T23:51:23.066Z,16.00
2018-12-10T23:53:51.389Z,19.27
2018-12-10T23:56:19.669Z,24.57
2018-12-10T23:58:47.793Z,17.50
